Time;durP1;ratioP1;P1;durP2;ratioP2;P2;SDS_P1;SDS_P2;PMS_P1;PMS_P2;Temp;Humidity;BMP_temperature;BMP_pressure;BME280_temperature;BME280_humidity;BME280_pressure;Samples;Min_cycle;Max_cycle;Signal;HPM_P1;HPM_P2
2023/10/15 00:00:25;;;;;;;3.58;0.82;;;28.90;39.50;;;;;;4999203;28;20026;-67
2023/10/15 00:02:53;;;;;;;3.40;0.50;;;29.00;38.20;;;;;;4991003;28;20099;-68
2023/10/15 00:05:25;;;;;;;3.35;0.70;;;29.40;37.80;;;;;;4990974;28;20065;-67
2023/10/15 00:07:53;;;;;;;2.15;0.50;;;29.60;36.50;;;;;;5010277;28;20115;-68
2023/10/15 00:10:26;;;;;;;2.83;0.60;;;29.10;36.40;;;;;;5005913;28;20468;-68
2023/10/15 00:12:55;;;;;;;2.25;0.60;;;28.80;39.50;;;;;;5009082;28;20049;-68
2023/10/15 00:15:25;;;;;;;3.05;0.50;;;29.20;39.10;;;;;;5008999;28;20077;-68
2023/10/15 00:17:55;;;;;;;3.13;0.50;;;29.60;39.80;;;;;;5010373;28;20089;-67
2023/10/15 00:20:27;;;;;;;1.13;0.50;;;30.00;39.40;;;;;;4987799;28;20113;-67
2023/10/15 00:22:55;;;;;;;2.33;0.50;;;30.30;37.70;;;;;;5005367;28;20523;-69
2023/10/15 00:25:22;;;;;;;2.33;0.60;;;30.70;38.30;;;;;;4986689;28;20041;-65
2023/10/15 00:27:57;;;;;;;2.58;0.65;;;30.70;38.10;;;;;;5001902;28;20044;-67
2023/10/15 00:30:32;;;;;;;3.40;0.90;;;30.80;36.80;;;;;;5008894;28;20025;-66
2023/10/15 00:33:03;;;;;;;2.92;0.70;;;30.70;37.60;;;;;;5006429;28;20030;-68
2023/10/15 00:35:34;;;;;;;1.77;0.60;;;31.00;38.30;;;;;;5009784;28;20503;-68
2023/10/15 00:38:11;;;;;;;1.38;0.60;;;30.80;38.40;;;;;;4990683;28;20536;-68
2023/10/15 00:40:38;;;;;;;4.22;0.80;;;31.00;36.90;;;;;;5004039;28;20403;-66
2023/10/15 00:43:06;;;;;;;1.85;0.68;;;30.80;35.60;;;;;;5010062;28;20032;-66
2023/10/15 00:45:44;;;;;;;1.00;0.50;;;29.90;36.30;;;;;;5013471;28;20030;-67
2023/10/15 00:48:33;;;;;;;2.60;0.50;;;29.90;37.30;;;;;;5003496;28;20026;-67
2023/10/15 00:51:04;;;;;;;2.97;0.70;;;29.20;36.60;;;;;;5002750;28;20109;-67
2023/10/15 00:53:32;;;;;;;4.40;0.52;;;29.10;37.30;;;;;;5011611;28;20042;-67
2023/10/15 00:56:05;;;;;;;2.10;0.65;;;28.50;38.10;;;;;;5013013;28;20040;-67
2023/10/15 00:58:39;;;;;;;3.78;0.82;;;28.80;39.90;;;;;;5002361;28;20100;-68
2023/10/15 01:03:55;;;;;;;1.70;0.60;;;29.10;37.50;;;;;;5002745;28;20022;-69
2023/10/15 01:09:09;;;;;;;1.83;0.50;;;28.90;38.10;;;;;;5012407;28;20113;-69
2023/10/15 01:11:38;;;;;;;2.70;0.60;;;29.30;38.10;;;;;;5007276;28;20061;-67
2023/10/15 01:14:10;;;;;;;2.58;0.90;;;29.50;37.90;;;;;;5003430;28;20417;-68
2023/10/15 01:16:39;;;;;;;3.67;1.10;;;29.60;38.10;;;;;;5005793;28;20025;-68
2023/10/15 01:24:19;;;;;;;2.83;1.00;;;29.50;36.60;;;;;;5013520;28;21441;-68
2023/10/15 01:29:36;;;;;;;2.33;0.88;;;29.80;36.40;;;;;;5004245;28;20069;-68
2023/10/15 01:32:14;;;;;;;5.93;1.05;;;29.90;37.40;;;;;;4996346;28;20696;-69
2023/10/15 01:34:45;;;;;;;2.30;0.65;;;30.10;36.30;;;;;;4979584;28;20033;-68
2023/10/15 01:40:00;;;;;;;4.63;1.60;;;29.40;36.30;;;;;;4997802;28;20042;-68
2023/10/15 01:45:30;;;;;;;4.65;1.77;;;29.20;37.40;;;;;;4994469;28;20125;-68
2023/10/15 01:53:23;;;;;;;10.23;7.90;;;29.50;37.10;;;;;;4956168;28;20048;-66
2023/10/15 01:56:03;;;;;;;8.90;6.00;;;29.60;36.50;;;;;;4996514;28;20046;-67
2023/10/15 01:58:31;;;;;;;8.00;6.88;;;29.40;37.00;;;;;;4995839;28;20057;-68
2023/10/15 02:01:20;;;;;;;8.27;6.53;;;29.20;37.30;;;;;;4978413;28;20088;-67
2023/10/15 02:03:48;;;;;;;8.65;6.38;;;29.80;38.40;;;;;;4983449;28;20026;-67
2023/10/15 02:06:19;;;;;;;9.57;6.93;;;30.60;36.30;;;;;;4995941;28;20093;-68
2023/10/15 02:08:51;;;;;;;10.57;5.03;;;30.70;35.90;;;;;;4993404;28;20028;-67
2023/10/15 02:11:21;;;;;;;9.07;5.38;;;30.40;36.00;;;;;;4986962;28;20444;-68
2023/10/15 02:13:51;;;;;;;6.85;4.55;;;30.80;36.90;;;;;;5000548;28;20018;-70
2023/10/15 02:16:29;;;;;;;7.55;5.28;;;31.30;37.40;;;;;;5011147;28;20127;-70
2023/10/15 02:18:58;;;;;;;4.53;3.22;;;31.60;35.80;;;;;;5011727;28;20038;-69
2023/10/15 02:21:31;;;;;;;4.65;3.38;;;31.60;35.80;;;;;;5010440;28;20033;-69
2023/10/15 02:24:08;;;;;;;3.35;2.70;;;31.30;35.50;;;;;;5008992;28;20053;-69
2023/10/15 02:26:35;;;;;;;;;;;30.50;35.60;;;;;;5012068;28;20045;-69
2023/10/15 02:29:27;;;;;;;4.30;2.50;;;30.10;36.30;;;;;;5012089;28;20255;-69
2023/10/15 02:31:56;;;;;;;3.78;2.63;;;30.20;36.40;;;;;;5010545;28;20104;-68
2023/10/15 02:34:27;;;;;;;4.03;2.20;;;30.70;36.00;;;;;;5009653;28;20514;-69
2023/10/15 02:37:02;;;;;;;5.15;2.25;;;30.70;35.30;;;;;;5011196;28;20286;-69
2023/10/15 02:39:36;;;;;;;3.00;2.35;;;30.70;36.50;;;;;;5010458;28;20068;-69
2023/10/15 02:42:04;;;;;;;5.38;2.78;;;30.50;36.30;;;;;;5011212;28;20022;-69
2023/10/15 02:44:32;;;;;;;5.22;2.72;;;30.50;35.90;;;;;;5006958;28;20034;-69
2023/10/15 02:47:28;;;;;;;5.05;3.45;;;30.40;35.20;;;;;;5009053;28;20113;-69
2023/10/15 02:49:52;;;;;;;7.88;3.25;;;30.40;35.90;;;;;;5002862;28;20041;-69
2023/10/15 02:52:24;;;;;;;2.60;2.00;;;30.70;37.20;;;;;;4993479;28;20029;-69
2023/10/15 02:54:51;;;;;;;3.22;1.60;;;31.10;35.70;;;;;;5008176;28;20058;-69
2023/10/15 02:57:21;;;;;;;2.72;0.93;;;31.40;36.10;;;;;;5009518;28;20060;-69
2023/10/15 02:59:51;;;;;;;2.53;0.80;;;31.20;35.00;;;;;;5010476;28;20054;-69
2023/10/15 03:02:25;;;;;;;2.05;0.80;;;30.90;35.50;;;;;;5011190;28;20219;-69
2023/10/15 03:04:55;;;;;;;2.78;0.80;;;30.20;35.50;;;;;;4992389;28;20068;-69
2023/10/15 03:07:30;;;;;;;3.83;0.75;;;30.50;35.90;;;;;;5009717;28;20080;-69
2023/10/15 03:10:03;;;;;;;4.35;0.85;;;30.60;35.90;;;;;;4991642;28;20026;-68
2023/10/15 03:12:33;;;;;;;2.20;0.70;;;31.10;35.80;;;;;;5006312;28;20030;-69
2023/10/15 03:15:01;;;;;;;1.40;0.60;;;31.70;36.50;;;;;;5009065;28;20044;-69
2023/10/15 03:17:31;;;;;;;1.50;0.50;;;32.10;35.00;;;;;;4989047;28;20030;-69
2023/10/15 03:20:48;;;;;;;3.55;0.45;;;32.40;34.70;;;;;;5009039;28;20034;-68
2023/10/15 03:22:58;;;;;;;1.50;0.60;;;32.40;33.80;;;;;;4999507;28;20045;-68
2023/10/15 03:25:34;;;;;;;2.28;0.52;;;31.50;34.50;;;;;;4996279;28;20038;-69
2023/10/15 03:28:01;;;;;;;1.00;0.45;;;31.80;35.90;;;;;;4995363;28;20064;-69
2023/10/15 03:30:33;;;;;;;2.88;0.60;;;31.90;35.30;;;;;;4991787;28;20045;-69
2023/10/15 03:33:01;;;;;;;1.40;0.70;;;32.30;35.50;;;;;;4991144;28;20034;-69
2023/10/15 03:35:38;;;;;;;1.02;0.60;;;32.60;34.70;;;;;;4993826;28;20038;-69
2023/10/15 03:38:10;;;;;;;2.92;0.75;;;32.60;34.50;;;;;;4994770;28;20062;-69
2023/10/15 03:41:06;;;;;;;4.60;0.95;;;32.30;34.40;;;;;;4995221;28;20038;-69
2023/10/15 03:43:35;;;;;;;1.65;0.52;;;32.20;34.80;;;;;;5002649;28;20084;-69
2023/10/15 03:46:24;;;;;;;2.60;0.80;;;32.00;34.20;;;;;;5003796;28;20038;-70
2023/10/15 03:48:53;;;;;;;1.38;0.60;;;31.90;34.20;;;;;;4993617;28;20084;-69
2023/10/15 03:51:20;;;;;;;2.10;0.55;;;31.50;34.10;;;;;;5003370;28;20030;-69
2023/10/15 03:53:51;;;;;;;3.55;0.70;;;31.20;34.50;;;;;;4997416;28;20041;-69
2023/10/15 03:56:27;;;;;;;1.50;0.43;;;31.50;35.00;;;;;;5003984;28;20042;-69
2023/10/15 03:58:57;;;;;;;5.05;0.75;;;31.50;34.40;;;;;;5001858;28;20064;-69
2023/10/15 04:01:27;;;;;;;1.52;0.57;;;31.50;34.10;;;;;;4998344;28;20096;-69
2023/10/15 04:03:55;;;;;;;2.05;0.60;;;31.70;34.70;;;;;;5003582;28;20382;-69
2023/10/15 04:06:22;;;;;;;2.45;0.70;;;32.20;34.70;;;;;;4997276;28;20052;-69
2023/10/15 04:11:42;;;;;;;3.65;0.80;;;32.90;35.60;;;;;;4991392;28;20037;-68
2023/10/15 04:16:50;;;;;;;3.10;0.63;;;33.10;34.00;;;;;;4991934;28;20483;-69
2023/10/15 04:19:18;;;;;;;6.93;0.90;;;32.30;33.10;;;;;;4991054;28;20072;-70
2023/10/15 04:21:46;;;;;;;2.88;0.80;;;31.70;34.30;;;;;;4992254;28;20029;-69
2023/10/15 04:24:28;;;;;;;2.85;0.60;;;32.00;34.50;;;;;;5002189;28;20040;-68
2023/10/15 04:26:55;;;;;;;2.50;0.95;;;32.30;34.40;;;;;;5000277;28;20073;-68
2023/10/15 04:29:22;;;;;;;2.60;0.73;;;32.80;34.40;;;;;;4996242;28;20028;-68
2023/10/15 04:32:09;;;;;;;2.28;0.80;;;33.10;33.50;;;;;;4992139;28;20471;-70
2023/10/15 04:34:39;;;;;;;2.70;0.85;;;32.70;32.50;;;;;;4992781;28;20077;-70
2023/10/15 04:37:10;;;;;;;2.22;0.60;;;32.20;32.60;;;;;;5001273;28;20026;-69
2023/10/15 04:39:49;;;;;;;2.17;0.82;;;31.90;33.10;;;;;;4995148;28;20026;-68
2023/10/15 04:42:21;;;;;;;1.83;0.65;;;31.50;32.50;;;;;;4996858;28;20501;-69
2023/10/15 04:44:50;;;;;;;2.35;0.60;;;31.50;34.00;;;;;;4995828;28;20029;-68
2023/10/15 04:47:25;;;;;;;1.75;0.70;;;31.80;33.60;;;;;;4996930;28;20478;-69
2023/10/15 04:49:57;;;;;;;1.90;0.60;;;32.00;33.40;;;;;;4978885;28;20033;-69
2023/10/15 04:52:25;;;;;;;2.08;0.73;;;32.30;32.70;;;;;;4989090;28;20030;-70
2023/10/15 04:54:56;;;;;;;3.35;0.80;;;32.50;31.40;;;;;;4996626;28;20046;-68
2023/10/15 04:57:24;;;;;;;1.63;0.75;;;32.10;31.30;;;;;;4984782;28;20198;-67
2023/10/15 04:59:52;;;;;;;3.35;0.73;;;32.00;32.20;;;;;;5004978;28;20053;-68
2023/10/15 05:02:21;;;;;;;6.05;1.10;;;31.60;31.60;;;;;;5001666;28;20509;-68
2023/10/15 05:04:49;;;;;;;3.38;1.15;;;31.60;32.30;;;;;;5000135;28;20398;-68
2023/10/15 05:07:16;;;;;;;1.30;0.70;;;31.80;33.50;;;;;;4999548;28;20037;-68
2023/10/15 05:09:44;;;;;;;1.40;0.63;;;32.10;33.50;;;;;;5006946;28;20072;-68
2023/10/15 05:12:12;;;;;;;1.75;0.60;;;32.40;32.20;;;;;;4994090;28;20033;-69
2023/10/15 05:14:40;;;;;;;1.95;0.47;;;32.60;33.50;;;;;;4991555;28;20034;-69
2023/10/15 05:17:08;;;;;;;1.42;0.50;;;32.90;32.70;;;;;;4988728;28;20116;-68
2023/10/15 05:19:35;;;;;;;1.90;0.73;;;32.80;33.40;;;;;;5000974;28;20489;-69
2023/10/15 05:22:02;;;;;;;1.50;0.70;;;32.70;32.90;;;;;;4994664;28;20590;-69
2023/10/15 05:24:30;;;;;;;4.80;0.70;;;32.80;33.40;;;;;;4995567;28;20456;-68
2023/10/15 05:26:57;;;;;;;2.70;0.82;;;32.80;32.60;;;;;;5003597;28;20475;-69
2023/10/15 05:29:26;;;;;;;4.30;1.02;;;32.70;32.30;;;;;;4988456;28;20027;-68
2023/10/15 05:31:54;;;;;;;2.13;0.70;;;31.90;34.80;;;;;;4991550;28;20144;-68
2023/10/15 05:34:22;;;;;;;3.58;1.00;;;31.50;35.50;;;;;;4998181;28;20044;-67
2023/10/15 05:36:49;;;;;;;4.43;1.10;;;31.20;36.20;;;;;;4992180;28;20029;-68
2023/10/15 05:39:18;;;;;;;2.70;0.82;;;30.90;36.00;;;;;;5000768;28;20174;-68
2023/10/15 05:41:45;;;;;;;3.30;0.90;;;30.60;36.60;;;;;;5005960;28;20487;-68
2023/10/15 05:44:13;;;;;;;3.45;0.90;;;30.60;36.80;;;;;;4997995;28;20457;-68
2023/10/15 05:46:41;;;;;;;3.05;0.60;;;30.50;36.70;;;;;;4992751;28;20136;-67
2023/10/15 05:49:08;;;;;;;2.42;0.60;;;29.80;37.20;;;;;;5005141;28;20042;-68
2023/10/15 05:51:35;;;;;;;3.70;1.00;;;29.40;37.90;;;;;;4989567;28;20065;-68
2023/10/15 05:54:04;;;;;;;2.40;0.90;;;28.90;38.60;;;;;;4999718;28;20069;-68
2023/10/15 05:56:33;;;;;;;4.75;1.25;;;28.90;39.10;;;;;;4998960;28;20453;-68
2023/10/15 05:59:01;;;;;;;2.40;0.70;;;29.00;39.40;;;;;;4984465;28;20062;-68
2023/10/15 06:01:29;;;;;;;1.65;0.82;;;29.00;39.20;;;;;;4998734;28;20041;-68
2023/10/15 06:03:57;;;;;;;3.67;0.88;;;28.90;39.20;;;;;;5000307;28;20038;-68
2023/10/15 06:06:24;;;;;;;3.17;1.00;;;29.10;37.80;;;;;;5000003;28;20053;-68
2023/10/15 06:08:53;;;;;;;4.70;0.80;;;29.10;38.60;;;;;;4995963;28;20034;-67
2023/10/15 06:11:21;;;;;;;1.50;0.70;;;28.90;39.40;;;;;;4979189;28;20036;-67
2023/10/15 06:13:48;;;;;;;5.00;1.10;;;28.60;40.30;;;;;;4993281;28;20026;-67
2023/10/15 06:16:18;;;;;;;3.90;0.93;;;28.10;40.40;;;;;;4992297;28;20034;-67
2023/10/15 06:18:45;;;;;;;3.95;0.93;;;28.10;41.00;;;;;;4992155;28;20053;-65
2023/10/15 06:21:14;;;;;;;2.65;0.80;;;28.00;40.50;;;;;;4996270;28;20081;-66
2023/10/15 06:23:41;;;;;;;2.05;1.00;;;28.10;40.60;;;;;;4988324;28;20097;-67
2023/10/15 06:26:08;;;;;;;4.80;1.10;;;27.90;40.60;;;;;;4991273;28;20054;-67
2023/10/15 06:28:36;;;;;;;2.25;0.95;;;27.90;40.10;;;;;;4992954;28;20038;-68
2023/10/15 06:31:04;;;;;;;3.75;1.42;;;27.80;40.30;;;;;;4991430;28;20478;-66
2023/10/15 06:33:32;;;;;;;4.35;1.10;;;27.70;40.30;;;;;;4975214;28;20430;-68
2023/10/15 06:35:59;;;;;;;4.43;1.10;;;27.70;40.00;;;;;;4990361;28;20038;-66
2023/10/15 06:38:27;;;;;;;3.60;1.05;;;27.50;40.30;;;;;;4990464;28;20371;-67
2023/10/15 06:40:54;;;;;;;5.15;1.20;;;27.50;40.90;;;;;;4988508;28;20041;-67
2023/10/15 06:43:21;;;;;;;9.63;1.58;;;27.50;41.40;;;;;;4996354;28;20026;-67
2023/10/15 06:45:50;;;;;;;7.50;1.40;;;27.70;41.00;;;;;;4995726;28;20112;-67
2023/10/15 06:48:18;;;;;;;4.13;0.70;;;27.50;40.50;;;;;;4995454;28;20170;-66
2023/10/15 06:50:45;;;;;;;2.50;0.93;;;27.30;40.70;;;;;;4994362;28;20022;-67
2023/10/15 06:53:13;;;;;;;4.13;0.80;;;27.30;41.60;;;;;;4990044;28;20424;-68
2023/10/15 06:55:45;;;;;;;4.00;1.17;;;27.40;42.20;;;;;;4987947;28;20053;-67
2023/10/15 06:58:13;;;;;;;4.38;1.10;;;27.30;43.00;;;;;;4994401;28;20185;-65
2023/10/15 07:00:40;;;;;;;3.88;1.08;;;27.10;43.80;;;;;;4992449;28;20022;-66
2023/10/15 07:03:08;;;;;;;4.15;1.27;;;26.90;44.00;;;;;;4993004;28;20063;-67
2023/10/15 07:05:36;;;;;;;6.22;1.17;;;26.70;45.10;;;;;;4987867;28;20255;-67
2023/10/15 07:08:03;;;;;;;4.75;0.90;;;26.60;45.70;;;;;;4989732;28;20402;-68
2023/10/15 07:10:31;;;;;;;3.63;1.15;;;26.50;45.80;;;;;;4987814;28;20029;-66
2023/10/15 07:13:01;;;;;;;3.60;0.98;;;26.40;46.10;;;;;;4996264;28;20042;-68
2023/10/15 07:15:29;;;;;;;4.47;1.40;;;26.30;46.30;;;;;;4990097;28;20122;-66
2023/10/15 07:17:58;;;;;;;8.23;1.90;;;26.20;46.00;;;;;;4987116;28;20471;-66
2023/10/15 07:20:26;;;;;;;4.05;1.50;;;26.20;46.10;;;;;;4988937;28;20026;-67
2023/10/15 07:22:56;;;;;;;4.60;1.00;;;25.90;46.40;;;;;;4986596;28;20038;-64
2023/10/15 07:25:24;;;;;;;7.57;1.17;;;25.90;46.80;;;;;;4995576;28;20646;-64
2023/10/15 07:27:51;;;;;;;4.32;0.93;;;25.80;46.30;;;;;;5005807;28;20030;-63
2023/10/15 07:30:23;;;;;;;3.53;1.10;;;25.60;47.00;;;;;;4998032;28;20038;-64
2023/10/15 07:32:57;;;;;;;5.30;1.08;;;25.60;46.60;;;;;;4994838;28;20032;-64
2023/10/15 07:35:27;;;;;;;3.88;1.40;;;25.50;46.70;;;;;;5007809;28;20555;-64
2023/10/15 07:37:55;;;;;;;3.10;1.20;;;25.60;46.40;;;;;;5003384;28;20030;-65
2023/10/15 07:40:32;;;;;;;3.40;0.90;;;25.50;46.30;;;;;;4994523;28;20021;-64
2023/10/15 07:43:00;;;;;;;2.00;0.80;;;25.40;46.50;;;;;;4989911;28;20414;-64
2023/10/15 07:45:32;;;;;;;5.60;1.20;;;25.40;47.50;;;;;;4991726;28;20109;-64
2023/10/15 07:48:02;;;;;;;2.30;1.10;;;25.40;47.20;;;;;;4994618;28;20529;-64
2023/10/15 07:50:34;;;;;;;4.00;1.40;;;25.20;47.70;;;;;;4996755;28;20036;-64
2023/10/15 07:53:02;;;;;;;4.05;1.25;;;24.90;48.20;;;;;;4977352;28;20058;-64
2023/10/15 07:55:31;;;;;;;3.50;1.30;;;24.70;49.10;;;;;;4997797;28;20042;-64
2023/10/15 07:57:58;;;;;;;7.57;1.92;;;24.50;49.40;;;;;;4999518;28;20109;-67
2023/10/15 08:00:26;;;;;;;5.57;1.70;;;24.60;49.70;;;;;;4992949;28;20330;-62
2023/10/15 08:02:57;;;;;;;3.80;1.58;;;24.60;49.40;;;;;;4995314;28;20109;-65
2023/10/15 08:05:28;;;;;;;5.93;1.70;;;24.70;49.30;;;;;;4995164;28;20033;-64
2023/10/15 08:07:57;;;;;;;4.13;1.60;;;24.80;49.30;;;;;;4997871;28;20044;-64
2023/10/15 08:10:31;;;;;;;6.63;1.75;;;24.70;49.40;;;;;;4993736;28;20695;-63
2023/10/15 08:12:59;;;;;;;3.42;1.25;;;24.60;49.80;;;;;;4996026;28;20069;-64
2023/10/15 08:15:32;;;;;;;3.92;1.30;;;24.40;50.50;;;;;;4989080;28;20089;-64
2023/10/15 08:18:01;;;;;;;6.13;1.52;;;24.20;51.20;;;;;;4990723;28;20410;-64
2023/10/15 08:20:29;;;;;;;6.10;1.50;;;24.10;51.70;;;;;;5020683;28;20029;-64
2023/10/15 08:22:56;;;;;;;3.45;1.08;;;24.10;51.90;;;;;;5004216;28;20129;-64
2023/10/15 08:25:23;;;;;;;9.20;1.48;;;24.00;52.10;;;;;;5007097;28;20033;-63
2023/10/15 08:27:51;;;;;;;5.00;1.38;;;23.90;52.80;;;;;;5010629;28;20024;-63
2023/10/15 08:30:19;;;;;;;6.32;1.38;;;23.80;53.40;;;;;;5000916;28;20123;-64
2023/10/15 08:32:48;;;;;;;2.95;1.30;;;23.60;54.00;;;;;;5008485;28;20471;-62
2023/10/15 08:35:16;;;;;;;8.68;1.58;;;23.60;54.20;;;;;;4992098;28;20088;-62
2023/10/15 08:37:45;;;;;;;6.55;1.17;;;23.60;54.50;;;;;;4993289;28;20030;-63
2023/10/15 08:40:17;;;;;;;6.70;1.70;;;23.50;55.10;;;;;;5009099;28;20038;-63
2023/10/15 08:43:18;;;;;;;4.47;1.00;;;23.40;55.60;;;;;;4991056;28;20026;-64
2023/10/15 08:45:47;;;;;;;7.30;1.85;;;23.40;55.80;;;;;;4996381;28;20038;-64
2023/10/15 08:48:16;;;;;;;4.57;1.23;;;23.20;56.40;;;;;;4993675;28;20034;-63
2023/10/15 08:50:46;;;;;;;3.33;1.20;;;23.10;56.90;;;;;;4995833;28;20113;-63
2023/10/15 08:53:14;;;;;;;4.50;1.70;;;23.00;57.30;;;;;;4990770;28;20061;-63
2023/10/15 08:55:42;;;;;;;10.18;2.13;;;23.00;56.90;;;;;;4978750;28;20118;-63
2023/10/15 08:58:09;;;;;;;4.43;1.65;;;23.20;56.20;;;;;;4990511;28;20038;-63
2023/10/15 09:00:39;;;;;;;8.02;1.63;;;23.00;56.00;;;;;;4992349;28;20014;-64
2023/10/15 09:03:06;;;;;;;4.22;1.42;;;23.10;55.60;;;;;;5001316;28;20044;-63
2023/10/15 09:05:37;;;;;;;4.38;1.10;;;23.20;55.10;;;;;;4994678;28;20014;-63
2023/10/15 09:08:06;;;;;;;4.47;1.23;;;23.20;55.40;;;;;;4998822;28;20076;-63
2023/10/15 09:10:36;;;;;;;3.28;1.00;;;23.00;55.80;;;;;;5008981;28;20018;-62
2023/10/15 09:13:05;;;;;;;4.85;1.33;;;23.00;56.00;;;;;;4999354;28;20475;-62
2023/10/15 09:15:32;;;;;;;5.30;1.10;;;23.00;56.70;;;;;;5003122;28;20038;-63
2023/10/15 09:18:00;;;;;;;3.53;1.05;;;22.70;58.00;;;;;;5001781;28;20034;-63
2023/10/15 09:20:32;;;;;;;6.97;1.35;;;22.60;58.50;;;;;;4997532;28;20114;-63
2023/10/15 09:23:01;;;;;;;5.63;1.38;;;22.60;58.90;;;;;;5006104;28;20032;-64
2023/10/15 09:25:29;;;;;;;6.53;1.15;;;22.70;59.20;;;;;;5007927;28;20030;-63
2023/10/15 09:27:59;;;;;;;3.33;1.02;;;22.50;60.30;;;;;;4995692;28;20034;-64
2023/10/15 09:30:28;;;;;;;4.13;1.40;;;22.50;60.80;;;;;;4998772;28;20026;-64
2023/10/15 09:32:56;;;;;;;5.10;1.23;;;22.50;61.30;;;;;;4997006;28;20042;-64
2023/10/15 09:35:29;;;;;;;5.78;1.50;;;22.60;61.40;;;;;;5001809;28;20046;-64
2023/10/15 09:37:57;;;;;;;3.75;1.15;;;22.60;62.60;;;;;;5000286;28;20038;-64
2023/10/15 09:40:30;;;;;;;4.03;1.10;;;22.60;63.00;;;;;;5000861;28;20388;-64
2023/10/15 09:42:59;;;;;;;7.10;1.50;;;22.40;62.60;;;;;;5002876;28;20033;-64
2023/10/15 09:45:27;;;;;;;6.30;1.23;;;22.40;62.80;;;;;;4996913;28;20106;-64
2023/10/15 09:47:58;;;;;;;7.68;1.30;;;22.40;64.00;;;;;;5003902;28;20026;-64
2023/10/15 09:50:28;;;;;;;5.05;1.48;;;22.00;64.90;;;;;;5001281;28;20081;-62
2023/10/15 09:52:57;;;;;;;6.03;1.42;;;21.60;65.90;;;;;;4996979;28;20034;-64
2023/10/15 09:55:31;;;;;;;4.22;1.10;;;21.60;66.00;;;;;;4994151;28;20042;-64
2023/10/15 09:58:01;;;;;;;7.90;1.88;;;21.80;66.30;;;;;;4992164;28;20041;-65
2023/10/15 10:03:30;;;;;;;4.72;1.20;;;21.40;66.60;;;;;;4995540;28;20038;-63
2023/10/15 10:06:11;;;;;;;4.80;1.20;;;21.30;67.20;;;;;;4998686;28;20034;-64
2023/10/15 10:08:49;;;;;;;6.00;1.40;;;21.20;69.00;;;;;;5006304;28;20030;-64
2023/10/15 10:11:29;;;;;;;3.70;0.90;;;21.00;68.00;;;;;;4983937;28;20592;-65
2023/10/15 10:14:09;;;;;;;7.93;1.35;;;20.70;69.80;;;;;;4997086;28;20100;-64
2023/10/15 10:16:41;;;;;;;6.47;1.98;;;20.60;70.20;;;;;;5009479;28;20134;-64
2023/10/15 10:19:09;;;;;;;5.00;1.52;;;20.60;70.70;;;;;;5001758;28;20074;-64
2023/10/15 10:21:37;;;;;;;5.25;1.27;;;20.30;70.70;;;;;;5004464;28;20030;-64
2023/10/15 10:24:09;;;;;;;4.93;1.20;;;20.40;72.10;;;;;;4995621;28;20026;-65
2023/10/15 10:26:39;;;;;;;7.10;1.20;;;20.40;71.90;;;;;;4996522;28;20463;-65
2023/10/15 10:29:09;;;;;;;4.78;1.17;;;20.40;71.10;;;;;;4993067;28;20117;-64
2023/10/15 10:31:39;;;;;;;5.85;1.17;;;20.40;72.90;;;;;;4997292;28;20034;-64
2023/10/15 10:34:06;;;;;;;4.53;0.90;;;20.30;73.00;;;;;;4978755;28;20053;-64
2023/10/15 10:36:56;;;;;;;6.68;0.70;;;20.10;73.90;;;;;;5001340;28;20038;-63
2023/10/15 10:39:25;;;;;;;5.78;0.98;;;20.00;74.00;;;;;;5000181;28;20140;-64
2023/10/15 10:41:59;;;;;;;3.03;1.00;;;19.90;74.30;;;;;;4996957;28;20022;-65
2023/10/15 10:44:28;;;;;;;5.63;1.35;;;19.60;75.40;;;;;;5000424;28;20027;-65
2023/10/15 10:46:59;;;;;;;10.75;0.98;;;19.50;76.90;;;;;;4986603;28;20034;-66
2023/10/15 10:49:40;;;;;;;3.63;0.82;;;19.70;76.10;;;;;;5000779;28;20037;-67
2023/10/15 10:52:15;;;;;;;4.28;1.08;;;19.80;75.30;;;;;;5001935;28;20030;-66
2023/10/15 10:54:43;;;;;;;4.57;1.23;;;19.40;76.50;;;;;;4997871;28;20045;-66
2023/10/15 10:57:11;;;;;;;4.45;1.17;;;19.50;77.40;;;;;;4990098;28;20160;-66
2023/10/15 10:59:42;;;;;;;6.70;1.05;;;19.30;77.40;;;;;;5004457;28;20128;-66
2023/10/15 11:02:13;;;;;;;3.88;0.98;;;19.20;77.80;;;;;;5007939;28;20037;-66
2023/10/15 11:04:42;;;;;;;4.22;1.10;;;19.10;79.00;;;;;;4986672;28;20420;-66
2023/10/15 11:07:15;;;;;;;2.40;1.10;;;19.00;79.60;;;;;;5001919;28;20036;-66
2023/10/15 11:09:42;;;;;;;6.03;1.23;;;18.80;79.00;;;;;;5008396;28;20364;-66
2023/10/15 11:12:10;;;;;;;3.08;0.88;;;18.80;81.00;;;;;;4998503;28;20059;-65
2023/10/15 11:14:39;;;;;;;5.15;1.40;;;18.80;79.60;;;;;;5004897;28;20929;-67
2023/10/15 11:17:10;;;;;;;2.97;1.30;;;18.70;80.00;;;;;;4994629;28;20534;-66
2023/10/15 11:19:39;;;;;;;6.28;1.60;;;18.60;81.40;;;;;;4992043;28;20411;-65
2023/10/15 11:22:08;;;;;;;4.53;1.10;;;18.50;80.90;;;;;;5000325;28;20498;-65
2023/10/15 11:24:36;;;;;;;2.50;1.02;;;18.40;82.40;;;;;;5001690;28;20081;-65
2023/10/15 11:27:07;;;;;;;2.83;1.17;;;18.60;82.00;;;;;;4997522;28;20038;-65
2023/10/15 11:29:35;;;;;;;4.90;1.10;;;18.70;81.80;;;;;;4993414;28;20113;-66
2023/10/15 11:32:03;;;;;;;3.00;1.63;;;18.50;81.60;;;;;;4979005;28;20037;-67
2023/10/15 11:34:33;;;;;;;4.55;1.33;;;18.30;82.30;;;;;;4995955;28;20141;-65
2023/10/15 11:37:01;;;;;;;12.05;1.58;;;18.20;82.40;;;;;;4995512;28;20026;-65
2023/10/15 11:39:37;;;;;;;6.38;1.50;;;18.20;83.50;;;;;;5008861;28;20025;-64
2023/10/15 11:42:07;;;;;;;5.43;1.52;;;18.30;82.50;;;;;;5005827;28;20053;-65
2023/10/15 11:44:38;;;;;;;3.38;1.38;;;18.20;82.10;;;;;;4991542;28;20117;-65
2023/10/15 11:47:09;;;;;;;7.40;1.70;;;18.20;83.20;;;;;;5008146;28;20087;-65
2023/10/15 11:49:42;;;;;;;5.20;1.63;;;18.40;81.80;;;;;;5011742;28;20140;-65
2023/10/15 11:52:14;;;;;;;5.40;1.65;;;18.30;82.30;;;;;;5001784;28;20471;-65
2023/10/15 11:54:48;;;;;;;8.75;1.73;;;18.20;82.50;;;;;;5001981;28;20076;-65
2023/10/15 11:57:24;;;;;;;11.60;5.85;;;18.20;82.80;;;;;;4992565;28;20088;-65
2023/10/15 11:59:52;;;;;;;9.63;4.55;;;18.30;81.90;;;;;;4998307;28;20058;-65
2023/10/15 12:02:20;;;;;;;7.70;2.55;;;18.10;81.90;;;;;;4994119;28;20212;-65
2023/10/15 12:04:51;;;;;;;7.95;1.92;;;17.90;82.50;;;;;;5003856;28;20486;-64
2023/10/15 12:07:21;;;;;;;6.85;1.90;;;17.80;83.00;;;;;;4999170;28;20034;-65
2023/10/15 12:09:49;;;;;;;3.78;1.48;;;17.70;83.80;;;;;;4997157;28;20848;-66
2023/10/15 12:12:17;;;;;;;6.55;1.70;;;17.70;83.70;;;;;;4991707;28;20177;-65
2023/10/15 12:14:45;;;;;;;4.32;1.38;;;17.60;85.00;;;;;;5003343;28;20368;-65
2023/10/15 12:17:15;;;;;;;5.57;1.58;;;17.60;85.00;;;;;;4998706;28;20031;-65
2023/10/15 12:19:44;;;;;;;5.97;1.63;;;17.60;84.40;;;;;;4991793;28;20069;-65
2023/10/15 12:22:14;;;;;;;4.13;1.40;;;17.50;84.80;;;;;;4991261;28;20062;-65
2023/10/15 12:24:42;;;;;;;5.97;1.50;;;17.50;84.90;;;;;;4991117;28;20071;-65
2023/10/15 12:27:09;;;;;;;3.17;1.05;;;17.40;84.70;;;;;;4991429;28;20034;-65
2023/10/15 12:29:38;;;;;;;4.18;1.75;;;17.40;85.50;;;;;;4989784;28;20027;-65
2023/10/15 12:32:08;;;;;;;5.05;1.63;;;17.30;85.80;;;;;;4988415;28;20034;-65
2023/10/15 12:34:37;;;;;;;3.15;1.10;;;17.20;86.50;;;;;;5005158;28;20037;-65
2023/10/15 12:37:07;;;;;;;7.32;1.50;;;17.10;86.70;;;;;;4994792;28;20157;-64
2023/10/15 12:39:40;;;;;;;5.22;1.50;;;17.10;87.10;;;;;;4995732;28;20540;-64
2023/10/15 12:42:09;;;;;;;4.45;1.27;;;17.10;87.20;;;;;;4995974;28;20424;-65
2023/10/15 12:44:44;;;;;;;4.57;1.40;;;17.10;88.00;;;;;;4995350;28;20041;-69
2023/10/15 12:47:12;;;;;;;3.80;1.38;;;17.00;87.70;;;;;;4998144;28;20089;-66
2023/10/15 12:49:39;;;;;;;5.25;1.52;;;17.10;88.60;;;;;;4994680;28;20034;-65
2023/10/15 12:52:10;;;;;;;6.28;1.80;;;17.10;88.90;;;;;;5003493;28;20113;-65
2023/10/15 12:54:37;;;;;;;8.60;2.00;;;17.00;89.20;;;;;;4982840;28;20049;-65
2023/10/15 12:57:05;;;;;;;6.40;1.27;;;17.00;89.50;;;;;;4995533;28;20080;-65
2023/10/15 12:59:32;;;;;;;5.95;1.73;;;17.00;89.80;;;;;;4997095;28;20116;-65
2023/10/15 13:02:00;;;;;;;9.38;1.77;;;16.90;89.90;;;;;;4998814;28;20092;-65
2023/10/15 13:04:27;;;;;;;7.88;1.92;;;16.90;90.20;;;;;;4994721;28;20105;-64
2023/10/15 13:06:55;;;;;;;11.02;2.42;;;16.90;90.40;;;;;;5009447;28;20026;-65
2023/10/15 13:09:25;;;;;;;8.55;2.10;;;16.80;90.40;;;;;;4996446;28;20038;-65
2023/10/15 13:11:53;;;;;;;9.43;1.92;;;16.80;90.60;;;;;;5000341;28;20127;-65
2023/10/15 13:14:21;;;;;;;3.22;1.35;;;16.70;90.60;;;;;;4994341;28;20461;-65
2023/10/15 13:16:50;;;;;;;8.35;1.75;;;16.70;90.70;;;;;;4995226;28;20118;-65
2023/10/15 13:19:18;;;;;;;15.27;2.35;;;16.70;91.00;;;;;;4995327;28;20026;-65
2023/10/15 13:21:47;;;;;;;6.13;1.88;;;16.70;91.10;;;;;;4995303;28;20398;-64
2023/10/15 13:24:15;;;;;;;9.57;2.22;;;16.70;91.20;;;;;;4994120;28;20030;-64
2023/10/15 13:26:45;;;;;;;9.10;1.70;;;16.70;91.40;;;;;;4993838;28;20056;-65
2023/10/15 13:29:14;;;;;;;12.60;2.67;;;16.70;91.70;;;;;;4995224;28;20038;-64
2023/10/15 13:31:41;;;;;;;12.40;3.13;;;16.70;91.80;;;;;;4981290;28;20113;-65
2023/10/15 13:34:09;;;;;;;7.00;1.83;;;16.60;92.10;;;;;;5001909;28;20038;-65
2023/10/15 13:36:37;;;;;;;8.80;2.33;;;16.50;92.20;;;;;;4996085;28;20041;-65